Tangier, VA (23440)

1:19 PM EST on February 27, 2017 (GMT -0500)
Hammock Pointe | | Change Station

Elev 0 ft 37.97 °N, 75.86 °W | Updated 8 seconds ago

Partly Cloudy
Partly Cloudy
58.6 °F
Feels Like 58.6 °F
N
7.3
Wind Variable Wind from SW

Today
High -- | Low -- °F
--% Chance of Precip.
Yesterday
High -- | Low -- °F
Precip. -- in
Pressure 30.43 in
Visibility 10.0 miles
Clouds Clear
Dew Point 43 °F
Humidity 57%
Rainfall 1.06 in
Snow Depth Not available.
6:37 AM 5:55 PM
New Moon, 2% visible
METAR KMFV 271755Z AUTO 18009KT 150V210 10SM CLR 14/M02 A3043 RMK AO2 T01391020 10139 20047
Pressure 30.43 in
Visibility 10.0 miles
Clouds Clear
Dew Point 43 °F
Humidity 57%
Rainfall 1.06 in
Snow Depth Not available.
6:37 AM 5:55 PM
New Moon, 2% visible
METAR KMFV 271755Z AUTO 18009KT 150V210 10SM CLR 14/M02 A3043 RMK AO2 T01391020 10139 20047

Get Your Daily Forecast Email!

Thanks for signing up!

Be on the lookout for a verification email in your inbox.

You'll start receiving the daily forecast at 8 AM.

×

10-Day Weather Forecast

Almanac

Astronomy

Feb. 27, 2017 Rise Set
Actual Time
Civil Twilight
Nautical Twilight
Astronomical Twilight
Moon
Length of Visible Light
Length of Day
Tomorrow will be .
, % of the Moon is Illuminated

Today's Extremes

State Highs State Lows

Community

WunderPhotos

Upload Photos

1,962,540 photos uploaded!

WunderBlog® & News

Nearby

Air Quality

  Air Quality AQ Index Pollutant
Not available.

Snow Depth

Station Depth Elevation

Earthquake Activity

City Distance Mag. Time & Date
Minimum magnitude displayed is 2.5.

Coastal Water Temperatures

Place Temperature

Stations

Nearby Weather Stations

Station Location Temp. Windchill Dew Point Humidity Wind Precip. Elev Updated Type
                   

Watches & Warnings

There are currently no watches in effect.